createdAt,value
2017-12-12T00:00:06.158Z,7.70
2017-12-12T00:02:32.688Z,7.70
2017-12-12T00:05:03.262Z,7.90
2017-12-12T00:07:30.406Z,7.90
2017-12-12T00:09:56.751Z,8.00
2017-12-12T00:12:23.335Z,7.90
2017-12-12T00:14:49.663Z,8.00
2017-12-12T00:17:16.763Z,7.90
2017-12-12T00:19:44.896Z,7.90
2017-12-12T00:22:12.366Z,7.90
2017-12-12T00:24:38.840Z,7.80
2017-12-12T00:27:07.278Z,7.90
2017-12-12T00:29:33.792Z,7.80
2017-12-12T00:32:00.196Z,7.90
2017-12-12T00:34:26.810Z,7.90
2017-12-12T00:36:54.840Z,7.90
2017-12-12T00:39:22.121Z,7.90
2017-12-12T00:41:54.829Z,7.90
2017-12-12T00:44:24.247Z,7.90
2017-12-12T00:46:52.464Z,7.80
2017-12-12T00:49:21.468Z,7.80
2017-12-12T00:51:47.915Z,7.80
2017-12-12T00:54:14.505Z,7.70
2017-12-12T00:56:41.246Z,7.70
2017-12-12T00:59:08.468Z,7.60
2017-12-12T01:01:35.836Z,7.70
2017-12-12T01:04:02.306Z,7.60
2017-12-12T01:06:28.984Z,7.70
2017-12-12T01:08:55.563Z,7.70
2017-12-12T01:11:22.047Z,7.60
2017-12-12T01:13:48.534Z,7.60
2017-12-12T01:16:15.009Z,7.50
2017-12-12T01:18:42.701Z,7.50
2017-12-12T01:21:08.984Z,7.60
2017-12-12T01:23:36.135Z,7.50
2017-12-12T01:26:03.320Z,7.50
2017-12-12T01:28:29.896Z,7.50
2017-12-12T01:30:56.220Z,7.50
2017-12-12T01:33:22.744Z,7.40
2017-12-12T01:35:51.621Z,7.40
2017-12-12T01:38:18.265Z,7.50
2017-12-12T01:40:44.716Z,7.60
2017-12-12T01:43:11.880Z,7.60
2017-12-12T01:45:39.710Z,7.40
2017-12-12T01:48:07.080Z,7.40
2017-12-12T01:50:33.580Z,7.40
2017-12-12T01:53:00.096Z,7.40
2017-12-12T01:55:26.478Z,7.40
2017-12-12T01:57:52.836Z,7.40
2017-12-12T02:00:22.928Z,7.40
2017-12-12T02:02:49.249Z,7.40
2017-12-12T02:05:15.556Z,7.30
2017-12-12T02:07:42.216Z,7.20
2017-12-12T02:10:09.642Z,7.20
2017-12-12T02:12:35.966Z,7.10
2017-12-12T02:15:02.332Z,7.00
2017-12-12T02:17:28.776Z,6.90
2017-12-12T02:19:55.549Z,6.90
2017-12-12T02:22:22.095Z,6.70
2017-12-12T02:24:49.476Z,6.70
2017-12-12T02:27:15.899Z,6.70
2017-12-12T02:29:45.289Z,6.50
2017-12-12T02:32:11.633Z,6.40
2017-12-12T02:34:38.121Z,6.20
2017-12-12T02:37:06.544Z,6.10
2017-12-12T02:39:33.068Z,6.00
2017-12-12T02:41:59.404Z,5.90
2017-12-12T02:44:25.956Z,5.80
2017-12-12T02:46:53.399Z,5.70
2017-12-12T02:49:19.875Z,5.80
2017-12-12T02:51:47.998Z,5.70
2017-12-12T02:54:15.256Z,5.60
2017-12-12T02:56:41.926Z,5.70
2017-12-12T02:59:09.436Z,5.60
2017-12-12T03:01:37.773Z,5.50
2017-12-12T03:04:04.926Z,5.30
2017-12-12T03:06:32.136Z,5.30
2017-12-12T03:08:59.378Z,5.30
2017-12-12T03:11:25.958Z,5.30
2017-12-12T03:13:53.067Z,5.10
2017-12-12T03:16:21.295Z,5.10
2017-12-12T03:18:48.355Z,4.90
2017-12-12T03:21:14.900Z,4.90
2017-12-12T03:23:42.424Z,4.80
2017-12-12T03:26:09.608Z,4.60
2017-12-12T03:28:36.360Z,4.60
2017-12-12T03:31:03.680Z,4.60
2017-12-12T03:33:30.157Z,4.50
2017-12-12T03:35:56.977Z,4.50
2017-12-12T03:38:24.180Z,4.40
2017-12-12T03:40:50.676Z,4.50
2017-12-12T03:43:17.184Z,4.60
2017-12-12T03:45:43.686Z,4.50
2017-12-12T03:48:11.116Z,4.40
2017-12-12T03:50:37.548Z,4.30
2017-12-12T03:53:04.206Z,4.20
2017-12-12T03:55:30.712Z,4.10
2017-12-12T03:57:57.326Z,4.00
2017-12-12T04:00:23.900Z,4.00
2017-12-12T04:02:50.501Z,4.10
2017-12-12T04:05:17.362Z,4.10
2017-12-12T04:07:43.819Z,4.10
2017-12-12T04:12:43.606Z,4.30
2017-12-12T04:15:10.121Z,4.20
2017-12-12T04:17:36.614Z,4.30
2017-12-12T04:20:04.183Z,4.20
2017-12-12T04:22:31.585Z,4.20
2017-12-12T04:24:58.133Z,4.10
2017-12-12T04:27:24.645Z,4.20
2017-12-12T04:29:54.274Z,4.30
2017-12-12T04:32:20.836Z,4.30
2017-12-12T04:34:47.228Z,4.20
2017-12-12T04:37:13.668Z,4.10
2017-12-12T04:39:40.085Z,4.10
2017-12-12T04:42:06.594Z,4.10
2017-12-12T04:44:33.171Z,4.00
2017-12-12T04:47:00.512Z,4.00
2017-12-12T04:49:26.934Z,4.10
2017-12-12T04:51:53.436Z,4.00
2017-12-12T04:54:23.385Z,4.20
2017-12-12T04:56:50.045Z,4.10
2017-12-12T04:59:16.465Z,4.10
2017-12-12T05:01:42.785Z,4.00
2017-12-12T05:04:09.305Z,4.10
2017-12-12T05:06:36.627Z,4.10
2017-12-12T05:09:03.809Z,4.20
2017-12-12T05:11:30.535Z,4.20
2017-12-12T05:13:57.204Z,4.20
2017-12-12T05:16:24.698Z,4.10
2017-12-12T05:18:51.079Z,4.20
2017-12-12T05:21:17.775Z,4.20
2017-12-12T05:23:44.878Z,4.30
2017-12-12T05:26:11.535Z,4.30
2017-12-12T05:28:39.105Z,4.30
2017-12-12T05:31:05.622Z,4.30
2017-12-12T05:33:33.595Z,4.20
2017-12-12T05:36:00.305Z,4.20
2017-12-12T05:38:26.956Z,4.20
2017-12-12T05:40:55.375Z,4.20
2017-12-12T05:43:21.916Z,4.20
2017-12-12T05:45:50.143Z,4.30
2017-12-12T05:48:17.016Z,4.30
2017-12-12T05:50:44.305Z,4.40
2017-12-12T05:53:12.325Z,4.30
2017-12-12T05:55:40.386Z,4.40
2017-12-12T05:58:07.125Z,4.40
2017-12-12T06:00:33.725Z,4.40
2017-12-12T06:03:01.155Z,4.40
2017-12-12T06:05:29.036Z,4.50
2017-12-12T06:07:56.829Z,4.40
2017-12-12T06:10:23.487Z,4.60
2017-12-12T06:12:50.605Z,4.50
2017-12-12T06:15:18.320Z,4.50
2017-12-12T06:17:45.084Z,4.50
2017-12-12T06:20:11.547Z,4.50
2017-12-12T06:22:38.537Z,4.70
2017-12-12T06:25:08.288Z,4.70
2017-12-12T06:27:36.067Z,4.70
2017-12-12T06:30:03.635Z,4.70
2017-12-12T06:32:30.165Z,4.70
2017-12-12T06:34:57.915Z,4.70
2017-12-12T06:37:25.445Z,4.50
2017-12-12T06:39:52.655Z,4.50
2017-12-12T06:42:19.316Z,4.50
2017-12-12T06:44:47.707Z,4.60
2017-12-12T06:47:15.376Z,4.60
2017-12-12T06:49:42.336Z,4.60
2017-12-12T06:52:09.395Z,4.60
2017-12-12T06:54:36.175Z,4.60
2017-12-12T06:57:04.768Z,4.60
2017-12-12T06:59:31.865Z,4.60
2017-12-12T07:01:58.645Z,4.80
2017-12-12T07:04:26.188Z,4.70
2017-12-12T07:06:52.997Z,4.70
2017-12-12T07:09:20.036Z,4.70
2017-12-12T07:11:47.226Z,4.70
2017-12-12T07:14:13.795Z,4.70
2017-12-12T07:16:40.466Z,4.80
2017-12-12T07:19:08.496Z,4.80
2017-12-12T07:21:38.124Z,4.70
2017-12-12T07:24:04.837Z,4.70
2017-12-12T07:26:32.239Z,4.80
2017-12-12T07:28:58.795Z,4.70
2017-12-12T07:31:26.521Z,4.80
2017-12-12T07:33:53.646Z,4.70
2017-12-12T07:36:20.372Z,4.70
2017-12-12T07:38:47.806Z,4.60
2017-12-12T07:41:14.311Z,4.60
2017-12-12T07:43:40.985Z,4.60
2017-12-12T07:46:08.245Z,4.50
2017-12-12T07:48:35.635Z,4.30
2017-12-12T07:51:02.384Z,4.30
2017-12-12T07:53:29.215Z,4.30
2017-12-12T07:55:56.696Z,4.10
2017-12-12T07:58:24.017Z,4.30
2017-12-12T08:00:51.177Z,4.30
2017-12-12T08:03:18.756Z,4.50
2017-12-12T08:05:47.145Z,5.00
2017-12-12T08:08:14.005Z,5.40
2017-12-12T08:10:40.775Z,5.50
2017-12-12T08:13:09.285Z,5.10
2017-12-12T08:15:36.907Z,4.90
2017-12-12T08:18:04.524Z,4.60
2017-12-12T08:20:31.185Z,4.60
2017-12-12T08:22:58.285Z,4.50
2017-12-12T08:25:24.995Z,4.40
2017-12-12T08:27:53.086Z,4.30
2017-12-12T08:30:19.945Z,4.20
2017-12-12T08:32:52.115Z,4.20
2017-12-12T08:35:19.605Z,4.10
2017-12-12T08:37:46.305Z,4.30
2017-12-12T08:40:12.993Z,4.20
2017-12-12T08:42:40.596Z,4.10
2017-12-12T08:45:07.348Z,4.00
2017-12-12T08:47:33.955Z,4.00
2017-12-12T08:50:00.705Z,4.10
2017-12-12T08:52:27.655Z,4.10
2017-12-12T08:54:54.295Z,4.00
2017-12-12T08:57:20.864Z,4.00
2017-12-12T08:59:48.855Z,4.10
2017-12-12T09:02:16.076Z,4.30
2017-12-12T09:04:44.968Z,4.30
2017-12-12T09:07:11.754Z,4.30
2017-12-12T09:09:39.725Z,4.50
2017-12-12T09:12:06.437Z,4.70
2017-12-12T09:14:35.135Z,4.80
2017-12-12T09:17:03.265Z,4.80
2017-12-12T09:19:30.157Z,4.90
2017-12-12T09:21:58.119Z,5.00
2017-12-12T09:24:24.812Z,5.20
2017-12-12T09:26:51.922Z,5.30
2017-12-12T09:29:18.387Z,5.40
2017-12-12T09:31:45.830Z,5.50
2017-12-12T09:34:12.311Z,5.60
2017-12-12T09:36:39.411Z,5.90
2017-12-12T09:39:05.689Z,5.90
2017-12-12T09:41:33.282Z,5.90
2017-12-12T09:43:59.822Z,5.90
2017-12-12T09:46:29.092Z,5.90
2017-12-12T09:48:56.956Z,5.90
2017-12-12T09:51:24.436Z,5.90
2017-12-12T09:53:53.286Z,5.80
2017-12-12T09:56:20.059Z,5.80
2017-12-12T09:58:46.331Z,5.80
2017-12-12T10:01:12.635Z,5.80
2017-12-12T10:03:39.193Z,5.70
2017-12-12T10:06:08.002Z,5.70
2017-12-12T10:08:34.654Z,5.60
2017-12-12T10:11:03.994Z,5.40
2017-12-12T10:13:31.384Z,5.40
2017-12-12T10:15:58.044Z,5.40
2017-12-12T10:18:25.374Z,5.40
2017-12-12T10:20:52.124Z,5.40
2017-12-12T10:23:19.744Z,5.30
2017-12-12T10:25:46.315Z,5.40
2017-12-12T10:28:15.294Z,5.30
2017-12-12T10:30:43.896Z,5.20
2017-12-12T10:33:11.081Z,5.20
2017-12-12T10:35:37.683Z,5.20
2017-12-12T10:38:06.432Z,5.20
2017-12-12T10:40:33.202Z,5.10
2017-12-12T10:43:00.854Z,5.20
2017-12-12T10:45:28.082Z,5.20
2017-12-12T10:47:54.622Z,5.20
2017-12-12T10:50:21.322Z,5.40
2017-12-12T10:52:48.922Z,5.40
2017-12-12T10:55:16.692Z,5.40
2017-12-12T10:57:43.282Z,5.50
2017-12-12T11:00:11.286Z,5.50
2017-12-12T11:02:39.760Z,5.50
2017-12-12T11:05:06.398Z,5.50
2017-12-12T11:07:33.952Z,5.50
2017-12-12T11:10:00.583Z,5.60
2017-12-12T11:12:27.402Z,5.70
2017-12-12T11:14:55.182Z,5.90
2017-12-12T11:17:21.683Z,6.10
2017-12-12T11:19:50.812Z,6.50
2017-12-12T11:22:20.112Z,6.50
2017-12-12T11:24:47.796Z,6.50
2017-12-12T11:27:16.232Z,6.60
2017-12-12T11:29:43.101Z,6.70
2017-12-12T11:32:10.572Z,6.90
2017-12-12T11:34:37.693Z,7.00
2017-12-12T11:37:04.363Z,7.10
2017-12-12T11:39:32.812Z,7.30
2017-12-12T11:41:59.512Z,7.40
2017-12-12T11:44:27.673Z,7.50
2017-12-12T11:46:54.143Z,7.60
2017-12-12T11:49:20.672Z,7.60
2017-12-12T11:51:47.272Z,7.60
2017-12-12T11:54:13.902Z,7.60
2017-12-12T11:56:40.436Z,7.70
2017-12-12T11:59:06.972Z,7.60
2017-12-12T12:01:35.113Z,7.60
2017-12-12T12:04:01.850Z,7.60
2017-12-12T12:06:29.653Z,7.50
2017-12-12T12:08:56.363Z,7.50
2017-12-12T12:11:22.932Z,7.70
2017-12-12T12:13:51.192Z,7.70
2017-12-12T12:16:17.843Z,7.80
2017-12-12T12:18:44.532Z,7.90
2017-12-12T12:21:11.242Z,7.90
2017-12-12T12:23:38.944Z,7.80
2017-12-12T12:26:05.553Z,7.60
2017-12-12T12:28:32.252Z,7.50
2017-12-12T12:31:00.797Z,7.30
2017-12-12T12:33:27.603Z,7.10
2017-12-12T12:35:54.282Z,7.10
2017-12-12T12:38:21.202Z,7.10
2017-12-12T12:40:48.652Z,7.00
2017-12-12T12:43:15.612Z,7.00
2017-12-12T12:45:44.194Z,6.90
2017-12-12T12:48:13.602Z,6.90
2017-12-12T12:50:40.442Z,6.90
2017-12-12T12:53:08.253Z,6.90
2017-12-12T12:55:36.662Z,6.80
2017-12-12T12:58:04.412Z,6.90
2017-12-12T13:00:32.372Z,6.90
2017-12-12T13:02:59.862Z,7.10
2017-12-12T13:05:27.080Z,7.00
2017-12-12T13:07:53.766Z,7.10
2017-12-12T13:10:20.247Z,7.20
2017-12-12T13:12:47.305Z,7.20
2017-12-12T13:15:13.834Z,7.20
2017-12-12T13:17:41.743Z,7.20
2017-12-12T13:20:08.502Z,7.10
2017-12-12T13:22:35.562Z,7.10
2017-12-12T13:25:02.603Z,7.10
2017-12-12T13:27:29.403Z,7.10
2017-12-12T13:29:58.312Z,6.90
2017-12-12T13:32:25.082Z,7.00
2017-12-12T13:34:52.423Z,6.80
2017-12-12T13:37:20.321Z,6.70
2017-12-12T13:39:47.022Z,6.70
2017-12-12T13:42:13.541Z,6.80
2017-12-12T13:44:40.022Z,6.90
2017-12-12T13:47:08.121Z,6.80
2017-12-12T13:49:34.962Z,6.80
2017-12-12T13:52:02.842Z,6.80
2017-12-12T13:54:31.662Z,6.80
2017-12-12T13:57:00.523Z,6.80
2017-12-12T13:59:27.822Z,6.80
2017-12-12T14:01:54.402Z,6.80
2017-12-12T14:04:21.282Z,6.80
2017-12-12T14:06:47.954Z,6.70
2017-12-12T14:09:14.782Z,6.80
2017-12-12T14:11:42.323Z,6.80
2017-12-12T14:14:10.012Z,6.70
2017-12-12T14:16:36.841Z,6.60
2017-12-12T14:19:04.582Z,6.60
2017-12-12T14:21:31.964Z,6.60
2017-12-12T14:23:59.465Z,6.60
2017-12-12T14:26:26.273Z,6.60
2017-12-12T14:28:54.732Z,6.50
2017-12-12T14:31:22.461Z,6.40
2017-12-12T14:33:49.643Z,6.40
2017-12-12T14:36:17.702Z,6.40
2017-12-12T14:38:44.842Z,6.30
2017-12-12T14:41:11.492Z,6.30
2017-12-12T14:43:40.472Z,6.00
2017-12-12T14:46:07.723Z,6.00
2017-12-12T14:48:37.652Z,6.00
2017-12-12T14:51:05.124Z,6.10
2017-12-12T14:53:31.892Z,6.10
2017-12-12T14:55:58.696Z,6.00
2017-12-12T14:58:27.172Z,5.90
2017-12-12T15:00:55.082Z,5.80
2017-12-12T15:03:21.752Z,5.90
2017-12-12T15:05:48.372Z,5.90
2017-12-12T15:08:15.752Z,5.90
2017-12-12T15:10:42.391Z,6.10
2017-12-12T15:13:09.923Z,6.10
2017-12-12T15:15:36.661Z,6.10
2017-12-12T15:18:04.311Z,5.90
2017-12-12T15:20:31.083Z,5.90
2017-12-12T15:22:57.908Z,5.90
2017-12-12T15:25:26.032Z,5.70
2017-12-12T15:27:55.551Z,5.70
2017-12-12T15:30:22.161Z,5.60
2017-12-12T15:32:49.441Z,5.60
2017-12-12T15:35:16.331Z,5.70
2017-12-12T15:37:43.752Z,5.80
2017-12-12T15:40:10.323Z,5.70
2017-12-12T15:42:41.394Z,5.80
2017-12-12T15:45:08.312Z,5.80
2017-12-12T15:47:36.412Z,5.60
2017-12-12T15:50:03.769Z,5.60
2017-12-12T15:52:31.241Z,5.60
2017-12-12T15:55:00.561Z,5.60
2017-12-12T15:57:27.171Z,5.70
2017-12-12T15:59:53.812Z,5.60
2017-12-12T16:02:20.553Z,5.40
2017-12-12T16:04:47.181Z,5.60
2017-12-12T16:07:15.605Z,5.40
2017-12-12T16:09:42.205Z,5.40
2017-12-12T16:12:08.539Z,5.30
2017-12-12T16:14:35.486Z,5.20
2017-12-12T16:17:01.791Z,5.20
2017-12-12T16:19:29.087Z,5.20
2017-12-12T16:21:55.508Z,5.10
2017-12-12T16:24:23.420Z,5.00
2017-12-12T16:26:50.676Z,5.00
2017-12-12T16:29:20.548Z,4.90
2017-12-12T16:31:46.914Z,4.90
2017-12-12T16:34:14.321Z,4.60
2017-12-12T16:36:40.650Z,4.60
2017-12-12T16:39:08.784Z,4.40
2017-12-12T16:41:35.113Z,4.50
2017-12-12T16:44:01.655Z,4.40
2017-12-12T16:46:29.415Z,4.20
2017-12-12T16:48:55.904Z,4.00
2017-12-12T16:51:22.655Z,3.90
2017-12-12T16:53:49.277Z,3.90
2017-12-12T16:56:15.800Z,3.70
2017-12-12T16:58:43.509Z,3.50
2017-12-12T17:01:10.635Z,3.30
2017-12-12T17:03:40.626Z,3.00
2017-12-12T17:06:08.685Z,3.00
2017-12-12T17:08:35.039Z,3.00
2017-12-12T17:11:01.360Z,3.10
2017-12-12T17:13:27.685Z,3.20
2017-12-12T17:15:54.706Z,3.20
2017-12-12T17:18:22.072Z,3.20
2017-12-12T17:20:49.245Z,3.30
2017-12-12T17:23:15.894Z,3.30
2017-12-12T17:25:43.004Z,3.50
2017-12-12T17:28:09.415Z,3.60
2017-12-12T17:30:37.079Z,3.80
2017-12-12T17:33:03.506Z,3.90
2017-12-12T17:35:31.286Z,3.90
2017-12-12T17:37:57.574Z,3.80
2017-12-12T17:40:24.653Z,3.80
2017-12-12T17:42:50.946Z,3.80
2017-12-12T17:45:18.351Z,3.90
2017-12-12T17:47:47.775Z,3.80
2017-12-12T17:50:14.424Z,3.90
2017-12-12T17:52:41.422Z,3.90
2017-12-12T17:55:08.772Z,3.90
2017-12-12T17:57:35.063Z,3.90
2017-12-12T18:00:03.043Z,4.00
2017-12-12T18:02:29.439Z,3.90
2017-12-12T18:04:55.944Z,4.00
2017-12-12T18:07:22.336Z,4.00
2017-12-12T18:09:49.609Z,4.00
2017-12-12T18:12:19.789Z,4.00
2017-12-12T18:14:47.293Z,4.20
2017-12-12T18:17:13.707Z,4.20
2017-12-12T18:19:40.255Z,4.10
2017-12-12T18:22:06.839Z,4.10
2017-12-12T18:24:33.330Z,4.10
2017-12-12T18:26:59.601Z,4.10
2017-12-12T18:29:26.095Z,4.20
2017-12-12T18:31:52.431Z,4.30
2017-12-12T18:34:19.227Z,4.20
2017-12-12T18:36:49.308Z,4.20
2017-12-12T18:39:15.835Z,4.20
2017-12-12T18:41:42.249Z,4.20
2017-12-12T18:44:08.930Z,4.20
2017-12-12T18:46:35.252Z,4.20
2017-12-12T18:49:01.953Z,4.10
2017-12-12T18:51:28.355Z,4.20
2017-12-12T18:53:55.044Z,4.20
2017-12-12T18:56:22.221Z,4.30
2017-12-12T18:58:49.434Z,4.30
2017-12-12T19:01:16.123Z,4.20
2017-12-12T19:03:43.294Z,4.10
2017-12-12T19:06:10.314Z,4.10
2017-12-12T19:08:39.754Z,4.10
2017-12-12T19:11:06.094Z,4.10
2017-12-12T19:13:35.378Z,4.30
2017-12-12T19:16:02.165Z,4.20
2017-12-12T19:18:32.991Z,4.10
2017-12-12T19:20:59.614Z,4.00
2017-12-12T19:23:27.154Z,4.00
2017-12-12T19:25:53.431Z,4.00
2017-12-12T19:28:20.567Z,4.10
2017-12-12T19:30:48.344Z,4.10
2017-12-12T19:33:16.034Z,4.20
2017-12-12T19:35:42.339Z,4.20
2017-12-12T19:38:12.392Z,4.00
2017-12-12T19:40:38.943Z,3.90
2017-12-12T19:43:05.325Z,3.80
2017-12-12T19:45:33.229Z,3.80
2017-12-12T19:47:59.562Z,3.70
2017-12-12T19:50:26.504Z,3.70
2017-12-12T19:52:54.479Z,3.60
2017-12-12T19:55:22.099Z,3.50
2017-12-12T19:57:49.156Z,3.50
2017-12-12T20:00:15.835Z,3.50
2017-12-12T20:02:43.118Z,3.40
2017-12-12T20:05:10.851Z,3.50
2017-12-12T20:07:38.640Z,3.30
2017-12-12T20:10:05.231Z,3.10
2017-12-12T20:12:31.699Z,3.00
2017-12-12T20:14:59.022Z,2.80
2017-12-12T20:17:26.712Z,2.70
2017-12-12T20:19:55.332Z,2.60
2017-12-12T20:22:22.018Z,2.60
2017-12-12T20:24:51.432Z,2.60
2017-12-12T20:27:19.531Z,2.60
2017-12-12T20:29:47.755Z,2.70
2017-12-12T20:32:14.443Z,2.70
2017-12-12T20:34:41.877Z,2.80
2017-12-12T20:37:10.293Z,2.80
2017-12-12T20:39:37.214Z,2.80
2017-12-12T20:42:04.667Z,2.60
2017-12-12T20:44:32.174Z,2.60
2017-12-12T20:46:58.758Z,2.60
2017-12-12T20:49:25.952Z,2.50
2017-12-12T20:51:53.052Z,2.50
2017-12-12T20:54:20.052Z,2.40
2017-12-12T20:56:46.642Z,2.30
2017-12-12T20:59:13.270Z,2.20
2017-12-12T21:01:39.588Z,2.00
2017-12-12T21:04:06.112Z,1.80
2017-12-12T21:06:32.534Z,1.70
2017-12-12T21:08:59.290Z,1.50
2017-12-12T21:11:25.572Z,1.60
2017-12-12T21:13:52.042Z,1.60
2017-12-12T21:16:18.942Z,1.50
2017-12-12T21:18:45.444Z,1.40
2017-12-12T21:21:12.921Z,1.30
2017-12-12T21:23:40.342Z,1.30
2017-12-12T21:26:06.721Z,1.50
2017-12-12T21:28:34.316Z,1.50
2017-12-12T21:31:00.737Z,1.40
2017-12-12T21:33:29.021Z,1.70
2017-12-12T21:35:55.397Z,1.70
2017-12-12T21:38:22.490Z,1.90
2017-12-12T21:40:48.781Z,1.90
2017-12-12T21:43:16.371Z,1.70
2017-12-12T21:45:43.952Z,1.50
2017-12-12T21:48:10.802Z,1.40
2017-12-12T21:50:37.732Z,1.40
2017-12-12T21:53:09.005Z,1.60
2017-12-12T21:55:35.340Z,1.50
2017-12-12T21:58:02.731Z,1.20
2017-12-12T22:00:29.192Z,1.20
2017-12-12T22:02:55.982Z,1.10
2017-12-12T22:05:23.057Z,1.00
2017-12-12T22:07:49.796Z,1.00
2017-12-12T22:10:17.672Z,1.20
2017-12-12T22:12:44.171Z,1.30
2017-12-12T22:15:12.093Z,1.20
2017-12-12T22:17:38.556Z,1.10
2017-12-12T22:20:05.681Z,1.10
2017-12-12T22:22:32.081Z,1.10
2017-12-12T22:24:58.715Z,1.10
2017-12-12T22:27:26.132Z,1.00
2017-12-12T22:29:54.962Z,1.20
2017-12-12T22:32:21.711Z,1.10
2017-12-12T22:34:49.872Z,1.10
2017-12-12T22:37:16.362Z,1.00
2017-12-12T22:39:43.070Z,1.00
2017-12-12T22:42:09.491Z,1.10
2017-12-12T22:44:36.022Z,1.00
2017-12-12T22:47:03.453Z,1.00
2017-12-12T22:49:30.221Z,1.10
2017-12-12T22:51:56.531Z,0.90
2017-12-12T22:54:22.870Z,0.80
2017-12-12T22:56:50.643Z,0.80
2017-12-12T22:59:16.956Z,0.80
2017-12-12T23:01:43.254Z,0.90
2017-12-12T23:04:09.731Z,0.90
2017-12-12T23:06:36.015Z,0.70
2017-12-12T23:09:02.549Z,0.50
2017-12-12T23:11:30.013Z,0.30
2017-12-12T23:13:56.416Z,0.30
2017-12-12T23:16:23.751Z,0.30
2017-12-12T23:18:50.249Z,0.30
2017-12-12T23:21:16.701Z,0.30
2017-12-12T23:23:43.291Z,0.20
2017-12-12T23:26:11.598Z,0.30
2017-12-12T23:28:39.479Z,0.40
2017-12-12T23:31:06.305Z,0.50
2017-12-12T23:33:32.632Z,0.70
2017-12-12T23:35:59.161Z,0.90
2017-12-12T23:38:25.612Z,1.00
2017-12-12T23:40:52.086Z,0.80
2017-12-12T23:43:20.328Z,0.90
2017-12-12T23:45:46.584Z,0.80
2017-12-12T23:48:13.657Z,1.10
2017-12-12T23:50:39.983Z,1.10
2017-12-12T23:53:06.415Z,1.20
2017-12-12T23:55:32.751Z,1.50
2017-12-12T23:57:59.050Z,1.60
